Time;durP1;ratioP1;P1;durP2;ratioP2;P2;SDS_P1;SDS_P2;PMS_P1;PMS_P2;Temp;Humidity;BMP_temperature;BMP_pressure;BME280_temperature;BME280_humidity;BME280_pressure;Samples;Min_cycle;Max_cycle;Signal;HPM_P1;HPM_P2
2022/05/09 00:01:56;;;;;;;;;;;20.40;38.70;;;;;;5019284;28;20343;-55
2022/05/09 00:04:23;;;;;;;;;;;20.40;38.70;;;;;;5038066;28;19925;-55
2022/05/09 00:06:51;;;;;;;;;;;20.40;38.70;;;;;;5056029;28;20012;-52
2022/05/09 00:09:18;;;;;;;;;;;20.40;39.30;;;;;;5037569;28;19921;-53
2022/05/09 00:11:45;;;;;;;;;;;20.40;38.60;;;;;;5038243;28;19927;-56
2022/05/09 00:14:11;;;;;;;;;;;20.40;38.70;;;;;;5055842;28;19956;-52
2022/05/09 00:16:38;;;;;;;;;;;20.40;38.60;;;;;;5037897;28;19921;-53
2022/05/09 00:19:05;;;;;;;;;;;20.40;38.60;;;;;;5037798;28;20024;-55
2022/05/09 00:21:33;;;;;;;;;;;20.30;38.50;;;;;;5037805;28;19921;-56
2022/05/09 00:24:01;;;;;;;;;;;20.30;38.40;;;;;;5055585;28;19924;-54
2022/05/09 00:26:31;;;;;;;;;;;20.40;38.50;;;;;;5037963;28;19931;-53
2022/05/09 00:28:58;;;;;;;;;;;20.30;38.40;;;;;;5037377;28;19959;-56
2022/05/09 00:31:24;;;;;;;;;;;20.30;38.40;;;;;;5037849;28;20308;-56
2022/05/09 00:33:51;;;;;;;;;;;20.30;38.30;;;;;;5055503;28;19921;-56
2022/05/09 00:36:17;;;;;;;;;;;20.30;38.30;;;;;;5037184;28;19939;-56
2022/05/09 00:38:44;;;;;;;;;;;20.30;38.30;;;;;;5038244;28;20413;-56
2022/05/09 00:41:34;;;;;;;;;;;20.30;38.30;;;;;;5038327;28;19928;-54
2022/05/09 00:44:01;;;;;;;;;;;20.30;38.30;;;;;;5036743;28;19921;-49
2022/05/09 00:46:29;;;;;;;;;;;20.30;38.30;;;;;;5037059;28;19924;-53
2022/05/09 00:48:56;;;;;;;;;;;20.30;38.20;;;;;;5038023;28;19927;-51
2022/05/09 00:51:23;;;;;;;;;;;20.30;38.20;;;;;;5054625;28;20031;-50
2022/05/09 00:53:50;;;;;;;;;;;20.30;38.20;;;;;;5036994;28;19927;-55
2022/05/09 00:56:20;;;;;;;;;;;20.30;38.20;;;;;;5037639;28;19927;-51
2022/05/09 00:58:47;;;;;;;;;;;20.30;38.10;;;;;;5054734;28;20023;-54
2022/05/09 01:01:14;;;;;;;;;;;20.30;38.10;;;;;;5037167;28;19971;-55
2022/05/09 01:03:41;;;;;;;;;;;20.30;38.10;;;;;;5037473;28;19956;-55
2022/05/09 01:06:08;;;;;;;;;;;20.30;38.00;;;;;;5037357;28;19928;-53
2022/05/09 01:08:35;;;;;;;;;;;20.30;38.00;;;;;;5036775;28;19921;-56
2022/05/09 01:11:03;;;;;;;;;;;20.30;37.90;;;;;;5054500;28;19921;-53
2022/05/09 01:13:31;;;;;;;;;;;20.30;37.90;;;;;;5037314;28;19921;-53
2022/05/09 01:15:58;;;;;;;;;;;20.30;37.90;;;;;;5036514;28;19952;-55
2022/05/09 01:18:25;;;;;;;;;;;20.30;37.80;;;;;;5037635;28;19971;-54
2022/05/09 01:20:53;;;;;;;;;;;20.30;37.80;;;;;;5056169;28;19925;-55
2022/05/09 01:23:32;;;;;;;;;;;20.20;37.70;;;;;;5036853;28;19955;-52
2022/05/09 01:25:59;;;;;;;;;;;20.20;37.70;;;;;;5036577;28;20031;-57
2022/05/09 01:28:27;;;;;;;;;;;20.20;37.70;;;;;;5037273;28;19932;-54
2022/05/09 01:30:56;;;;;;;;;;;20.20;37.70;;;;;;5037179;28;19928;-56
2022/05/09 01:33:26;;;;;;;;;;;20.20;37.60;;;;;;5037217;28;19921;-54
2022/05/09 01:35:53;;;;;;;;;;;20.20;37.70;;;;;;5054099;28;20366;-50
2022/05/09 01:38:22;;;;;;;;;;;20.20;37.60;;;;;;5036105;28;20290;-52
2022/05/09 01:40:50;;;;;;;;;;;20.20;37.60;;;;;;5054155;28;20031;-53
2022/05/09 01:43:28;;;;;;;;;;;20.20;37.50;;;;;;5054465;28;19925;-52
2022/05/09 01:45:54;;;;;;;;;;;20.20;37.50;;;;;;5036774;28;19921;-53
2022/05/09 01:51:08;;;;;;;;;;;20.20;37.50;;;;;;5036865;28;20342;-56
2022/05/09 01:53:35;;;;;;;;;;;20.20;37.50;;;;;;5037020;28;20039;-55
2022/05/09 01:56:03;;;;;;;;;;;20.20;37.50;;;;;;5036450;28;20385;-56
2022/05/09 01:58:29;;;;;;;;;;;20.20;37.40;;;;;;5037607;28;19947;-55
2022/05/09 02:00:56;;;;;;;;;;;20.20;37.40;;;;;;5037757;28;19921;-51
2022/05/09 02:03:22;;;;;;;;;;;20.20;37.40;;;;;;5037115;28;20266;-53
2022/05/09 02:05:49;;;;;;;;;;;20.20;37.40;;;;;;5037627;28;19925;-53
2022/05/09 02:08:16;;;;;;;;;;;20.20;37.30;;;;;;5037198;28;20019;-54
2022/05/09 02:10:42;;;;;;;;;;;20.20;37.30;;;;;;5053771;28;20327;-56
2022/05/09 02:13:11;;;;;;;;;;;20.20;37.30;;;;;;5036849;28;19920;-56
2022/05/09 02:15:40;;;;;;;;;;;20.20;37.30;;;;;;5039339;28;19974;-50
2022/05/09 02:18:07;;;;;;;;;;;20.20;37.30;;;;;;5039719;28;19928;-55
2022/05/09 02:20:33;;;;;;;;;;;20.20;37.20;;;;;;5057849;28;19928;-53
2022/05/09 02:23:00;;;;;;;;;;;20.10;37.10;;;;;;5057698;28;19920;-52
2022/05/09 02:25:33;;;;;;;;;;;20.20;37.20;;;;;;5039569;28;19959;-52
2022/05/09 02:28:00;;;;;;;;;;;20.10;37.10;;;;;;5040094;28;20277;-52
2022/05/09 02:30:29;;;;;;;;;;;20.10;37.10;;;;;;5040482;28;19943;-51
2022/05/09 02:32:56;;;;;;;;;;;20.10;37.10;;;;;;5057847;28;19928;-52
2022/05/09 02:35:22;;;;;;;;;;;20.10;37.00;;;;;;5057819;28;20020;-54
2022/05/09 02:37:49;;;;;;;;;;;20.10;37.00;;;;;;5029070;28;20008;-54
2022/05/09 02:40:17;;;;;;;;;;;20.10;37.00;;;;;;5036825;28;20016;-55
2022/05/09 02:42:43;;;;;;;;;;;20.10;37.00;;;;;;5035965;28;19971;-52
2022/05/09 02:45:10;;;;;;;;;;;20.10;37.00;;;;;;5020335;28;20020;-55
2022/05/09 02:47:40;;;;;;;;;;;20.10;37.00;;;;;;5019391;28;19943;-54
2022/05/09 02:50:07;;;;;;;;;;;20.10;37.00;;;;;;5019760;28;20011;-51
2022/05/09 02:52:33;;;;;;;;;;;20.10;37.00;;;;;;5020255;28;19972;-55
2022/05/09 02:55:00;;;;;;;;;;;20.10;37.00;;;;;;5036991;28;19928;-54
2022/05/09 02:57:27;;;;;;;;;;;20.10;36.90;;;;;;5019319;28;19921;-55
2022/05/09 02:59:53;;;;;;;;;;;20.10;36.90;;;;;;5035787;28;20024;-50
2022/05/09 03:02:20;;;;;;;;;;;20.10;36.90;;;;;;5035875;28;19921;-53
2022/05/09 03:04:48;;;;;;;;;;;20.10;36.90;;;;;;5018145;28;20020;-51
2022/05/09 03:07:16;;;;;;;;;;;20.10;36.90;;;;;;5019194;28;20398;-54
2022/05/09 03:09:43;;;;;;;;;;;20.10;36.90;;;;;;5019202;28;19921;-53
2022/05/09 03:12:11;;;;;;;;;;;20.10;36.80;;;;;;5019495;28;19921;-52
2022/05/09 03:14:38;;;;;;;;;;;20.10;36.80;;;;;;5019865;28;19928;-53
2022/05/09 03:17:04;;;;;;;;;;;20.10;36.80;;;;;;5019328;28;19953;-55
2022/05/09 03:19:31;;;;;;;;;;;20.00;36.70;;;;;;5018791;28;19971;-52
2022/05/09 03:21:59;;;;;;;;;;;20.10;36.80;;;;;;5018841;28;19921;-51
2022/05/09 03:24:26;;;;;;;;;;;20.00;36.70;;;;;;5036226;28;19967;-53
2022/05/09 03:26:52;;;;;;;;;;;20.00;36.70;;;;;;5018582;28;20023;-49
2022/05/09 03:29:19;;;;;;;;;;;20.00;36.70;;;;;;5018843;28;19975;-52
2022/05/09 03:31:47;;;;;;;;;;;20.00;36.60;;;;;;5036238;28;19921;-53
2022/05/09 03:34:14;;;;;;;;;;;20.00;36.60;;;;;;5019011;28;19971;-54
2022/05/09 03:36:41;;;;;;;;;;;20.00;36.70;;;;;;5035458;28;19988;-55
2022/05/09 03:39:09;;;;;;;;;;;20.00;36.60;;;;;;5036372;28;19944;-56
2022/05/09 03:41:36;;;;;;;;;;;20.00;36.60;;;;;;5035457;28;19970;-53
2022/05/09 03:44:03;;;;;;;;;;;20.00;36.60;;;;;;5036089;28;19921;-54
2022/05/09 03:46:29;;;;;;;;;;;20.00;36.60;;;;;;5034865;28;19925;-54
2022/05/09 03:48:56;;;;;;;;;;;20.00;36.60;;;;;;5018460;28;20036;-51
2022/05/09 03:51:22;;;;;;;;;;;20.00;36.60;;;;;;5018827;28;19928;-52
2022/05/09 03:53:49;;;;;;;;;;;20.00;36.60;;;;;;5037950;28;19925;-53
2022/05/09 03:56:17;;;;;;;;;;;20.00;36.50;;;;;;5036337;28;20392;-55
2022/05/09 03:58:44;;;;;;;;;;;20.00;36.50;;;;;;5017888;28;19925;-54
2022/05/09 04:01:11;;;;;;;;;;;20.00;36.50;;;;;;5035132;28;19921;-49
2022/05/09 04:03:38;;;;;;;;;;;20.00;36.50;;;;;;5018710;28;20311;-50
2022/05/09 04:06:04;;;;;;;;;;;20.00;36.50;;;;;;5034569;28;19927;-51
2022/05/09 04:08:31;;;;;;;;;;;20.00;36.50;;;;;;5035891;28;20449;-54
2022/05/09 04:10:58;;;;;;;;;;;20.00;36.50;;;;;;5035775;28;19921;-52
2022/05/09 04:13:26;;;;;;;;;;;20.00;36.50;;;;;;5017937;28;19921;-54
2022/05/09 04:18:37;;;;;;;;;;;20.00;36.50;;;;;;5035450;28;19928;-56
2022/05/09 04:21:04;;;;;;;;;;;20.00;36.50;;;;;;5018690;28;19928;-54
2022/05/09 04:23:31;;;;;;;;;;;20.00;36.50;;;;;;5035033;28;20364;-54
2022/05/09 04:25:57;;;;;;;;;;;20.00;36.50;;;;;;5017685;28;19927;-54
2022/05/09 04:28:25;;;;;;;;;;;19.90;36.40;;;;;;5036100;28;19925;-50
2022/05/09 04:30:52;;;;;;;;;;;20.00;36.50;;;;;;5033777;28;20016;-51
2022/05/09 04:33:19;;;;;;;;;;;20.00;36.50;;;;;;5017288;28;19944;-55
2022/05/09 04:35:45;;;;;;;;;;;19.90;36.40;;;;;;5017607;28;19968;-54
2022/05/09 04:38:16;;;;;;;;;;;19.90;36.40;;;;;;5016682;28;19921;-51
2022/05/09 04:40:42;;;;;;;;;;;19.90;36.40;;;;;;5035372;28;19921;-54
2022/05/09 04:43:09;;;;;;;;;;;19.90;36.40;;;;;;5015430;28;19928;-56
2022/05/09 04:45:37;;;;;;;;;;;19.90;36.40;;;;;;5034823;28;19964;-54
2022/05/09 04:48:04;;;;;;;;;;;19.90;36.40;;;;;;5034925;28;19921;-53
2022/05/09 04:50:32;;;;;;;;;;;19.90;36.40;;;;;;5018143;28;19971;-53
2022/05/09 04:52:58;;;;;;;;;;;19.90;36.40;;;;;;5018124;28;19921;-54
2022/05/09 04:55:25;;;;;;;;;;;19.90;36.40;;;;;;5017436;28;20392;-54
2022/05/09 04:57:52;;;;;;;;;;;19.90;36.40;;;;;;5017233;28;19928;-53
2022/05/09 05:00:19;;;;;;;;;;;19.90;36.50;;;;;;5035256;28;19997;-52
2022/05/09 05:02:47;;;;;;;;;;;19.90;36.40;;;;;;5017736;28;19929;-54
2022/05/09 05:05:14;;;;;;;;;;;19.90;36.50;;;;;;5017394;28;20258;-54
2022/05/09 05:07:40;;;;;;;;;;;19.90;36.40;;;;;;5017425;28;19933;-55
2022/05/09 05:10:08;;;;;;;;;;;19.90;36.40;;;;;;5017477;28;19960;-56
2022/05/09 05:12:35;;;;;;;;;;;19.90;36.50;;;;;;5017487;28;19967;-52
2022/05/09 05:15:01;;;;;;;;;;;19.90;36.40;;;;;;5016505;28;19922;-50
2022/05/09 05:17:28;;;;;;;;;;;19.90;36.50;;;;;;5016762;28;19968;-54
2022/05/09 05:19:56;;;;;;;;;;;19.90;36.50;;;;;;5016648;28;20024;-55
2022/05/09 05:22:23;;;;;;;;;;;19.90;36.50;;;;;;5034363;28;20281;-54
2022/05/09 05:24:52;;;;;;;;;;;19.90;36.50;;;;;;5017413;28;19967;-51
2022/05/09 05:27:21;;;;;;;;;;;19.90;36.50;;;;;;5016818;28;19971;-55
2022/05/09 05:29:47;;;;;;;;;;;19.90;36.50;;;;;;5016936;28;19963;-56
2022/05/09 05:32:15;;;;;;;;;;;19.90;36.50;;;;;;5034491;28;19921;-53
2022/05/09 05:34:41;;;;;;;;;;;19.90;36.50;;;;;;5033997;28;19925;-53
2022/05/09 05:37:10;;;;;;;;;;;19.90;36.50;;;;;;5034073;28;19921;-54
2022/05/09 05:39:37;;;;;;;;;;;19.90;36.40;;;;;;5016720;28;19968;-51
2022/05/09 05:42:05;;;;;;;;;;;19.90;36.50;;;;;;5016639;28;20365;-55
2022/05/09 05:44:32;;;;;;;;;;;19.90;36.50;;;;;;5033965;28;20374;-54
2022/05/09 05:46:59;;;;;;;;;;;19.90;36.50;;;;;;5017016;28;20015;-51
2022/05/09 05:49:26;;;;;;;;;;;19.90;36.50;;;;;;5037137;28;19945;-50
2022/05/09 05:51:52;;;;;;;;;;;19.90;36.50;;;;;;5020559;28;20265;-53
2022/05/09 05:54:20;;;;;;;;;;;19.90;36.60;;;;;;5020737;28;19925;-55
2022/05/09 05:56:47;;;;;;;;;;;19.90;36.60;;;;;;5005000;28;20441;-51
2022/05/09 05:59:14;;;;;;;;;;;19.90;36.60;;;;;;5020604;28;19921;-54
2022/05/09 06:01:41;;;;;;;;;;;20.00;36.70;;;;;;5020231;28;20409;-52
2022/05/09 06:04:07;;;;;;;;;;;20.00;36.70;;;;;;5020322;28;19921;-54
2022/05/09 06:06:34;;;;;;;;;;;20.00;36.70;;;;;;5020141;28;19921;-51
2022/05/09 06:09:01;;;;;;;;;;;20.00;36.70;;;;;;5020654;28;19925;-55
2022/05/09 06:11:29;;;;;;;;;;;20.00;36.80;;;;;;5037936;28;19921;-51
2022/05/09 06:13:56;;;;;;;;;;;20.00;36.70;;;;;;5020233;28;19921;-50
2022/05/09 06:16:22;;;;;;;;;;;20.00;36.70;;;;;;5020125;28;20410;-50
2022/05/09 06:18:51;;;;;;;;;;;20.00;36.70;;;;;;5037626;28;19972;-51
2022/05/09 06:21:18;;;;;;;;;;;20.00;36.80;;;;;;5037618;28;19921;-52
2022/05/09 06:23:45;;;;;;;;;;;20.00;36.80;;;;;;5020662;28;19929;-51
2022/05/09 06:26:14;;;;;;;;;;;20.00;36.80;;;;;;5020760;28;20334;-49
2022/05/09 06:28:42;;;;;;;;;;;20.00;36.80;;;;;;5019902;28;20325;-50
2022/05/09 06:31:08;;;;;;;;;;;20.00;36.80;;;;;;5037955;28;19975;-49
2022/05/09 06:33:35;;;;;;;;;;;20.00;36.80;;;;;;5020428;28;19927;-50
2022/05/09 06:36:02;;;;;;;;;;;20.00;36.80;;;;;;5036347;28;19921;-49
2022/05/09 06:38:30;;;;;;;;;;;20.00;36.80;;;;;;5019818;28;19921;-50
2022/05/09 06:40:58;;;;;;;;;;;20.00;36.80;;;;;;5019404;28;19967;-51
2022/05/09 06:43:24;;;;;;;;;;;20.00;36.80;;;;;;5038099;28;19932;-51
2022/05/09 06:45:52;;;;;;;;;;;20.00;36.80;;;;;;5020419;28;20035;-52
2022/05/09 06:48:19;;;;;;;;;;;20.00;36.80;;;;;;5020589;28;19921;-49
2022/05/09 06:50:46;;;;;;;;;;;20.00;36.80;;;;;;5019753;28;19960;-54
2022/05/09 06:53:12;;;;;;;;;;;20.00;36.70;;;;;;5019220;28;19920;-53
2022/05/09 06:55:39;;;;;;;;;;;20.00;36.70;;;;;;5019494;28;20429;-50
2022/05/09 06:58:06;;;;;;;;;;;20.00;36.80;;;;;;5018774;28;20021;-49
2022/05/09 07:00:33;;;;;;;;;;;20.00;36.80;;;;;;5018505;28;19928;-50
2022/05/09 07:03:01;;;;;;;;;;;19.90;36.80;;;;;;5019331;28;19967;-48
2022/05/09 07:05:27;;;;;;;;;;;19.90;36.80;;;;;;5019321;28;19960;-50
2022/05/09 07:07:54;;;;;;;;;;;19.90;37.00;;;;;;5018245;28;19971;-53
2022/05/09 07:10:21;;;;;;;;;;;19.90;37.10;;;;;;5018326;28;19971;-51
2022/05/09 07:12:48;;;;;;;;;;;19.90;37.20;;;;;;5024283;28;19964;-54
2022/05/09 07:15:15;;;;;;;;;;;19.80;37.20;;;;;;5038112;28;19927;-51
2022/05/09 07:17:42;;;;;;;;;;;19.90;37.30;;;;;;5044333;28;19944;-49
2022/05/09 07:20:11;;;;;;;;;;;19.80;37.20;;;;;;5018064;28;19921;-55
2022/05/09 07:22:37;;;;;;;;;;;19.80;37.20;;;;;;5021610;28;20007;-50
2022/05/09 07:25:05;;;;;;;;;;;19.80;37.30;;;;;;5037852;28;19924;-52
2022/05/09 07:27:32;;;;;;;;;;;19.80;37.40;;;;;;5040437;28;19924;-49
2022/05/09 07:29:58;;;;;;;;;;;19.80;37.50;;;;;;5053308;28;19920;-53
2022/05/09 07:32:25;;;;;;;;;;;19.80;37.40;;;;;;5035396;28;19924;-51
2022/05/09 07:34:52;;;;;;;;;;;19.80;37.40;;;;;;5055160;28;19925;-52
2022/05/09 07:37:21;;;;;;;;;;;19.70;37.30;;;;;;5036902;28;20016;-54
2022/05/09 07:39:48;;;;;;;;;;;19.70;37.30;;;;;;5037439;28;20281;-52
2022/05/09 07:42:14;;;;;;;;;;;19.70;37.30;;;;;;5031456;28;20262;-54
2022/05/09 07:44:41;;;;;;;;;;;19.70;37.40;;;;;;5018790;28;19928;-54
2022/05/09 07:47:09;;;;;;;;;;;19.70;37.30;;;;;;5035203;28;19927;-56
2022/05/09 07:49:36;;;;;;;;;;;19.70;37.30;;;;;;5037935;28;20070;-56
2022/05/09 07:52:02;;;;;;;;;;;19.70;37.40;;;;;;5049200;28;19921;-53
2022/05/09 07:54:30;;;;;;;;;;;19.70;37.40;;;;;;5017747;28;19921;-53
2022/05/09 07:56:57;;;;;;;;;;;19.70;37.40;;;;;;5034947;28;20016;-54
2022/05/09 07:59:24;;;;;;;;;;;19.70;37.40;;;;;;5017536;28;19927;-49
2022/05/09 08:01:52;;;;;;;;;;;19.80;37.40;;;;;;5015229;28;20003;-53
2022/05/09 08:04:19;;;;;;;;;;;19.80;37.50;;;;;;5036788;28;20356;-53
2022/05/09 08:06:46;;;;;;;;;;;19.80;37.40;;;;;;5051102;28;19943;-49
2022/05/09 08:09:13;;;;;;;;;;;19.80;37.20;;;;;;5036397;28;19970;-53
2022/05/09 08:11:41;;;;;;;;;;;19.80;37.10;;;;;;5051156;28;20292;-55
2022/05/09 08:14:08;;;;;;;;;;;19.80;37.00;;;;;;5036966;28;19927;-50
2022/05/09 08:16:34;;;;;;;;;;;19.70;36.80;;;;;;5036756;28;20218;-54
2022/05/09 08:19:02;;;;;;;;;;;19.70;36.80;;;;;;5036253;28;20015;-55
2022/05/09 08:21:29;;;;;;;;;;;19.70;36.90;;;;;;5054251;28;20329;-51
2022/05/09 08:23:56;;;;;;;;;;;19.70;36.90;;;;;;5033509;28;19961;-49
2022/05/09 08:26:23;;;;;;;;;;;19.70;37.00;;;;;;5054137;28;19929;-53
2022/05/09 08:28:52;;;;;;;;;;;19.70;37.00;;;;;;5036688;28;20111;-51
2022/05/09 08:31:19;;;;;;;;;;;19.70;37.00;;;;;;5031818;28;19921;-52
2022/05/09 08:33:47;;;;;;;;;;;19.70;37.10;;;;;;5036738;28;20007;-51
2022/05/09 08:36:45;;;;;;;;;;;19.70;37.20;;;;;;5036369;28;19921;-52
2022/05/09 08:39:01;;;;;;;;;;;19.80;37.10;;;;;;5053904;28;19920;-52
2022/05/09 08:41:28;;;;;;;;;;;19.80;37.20;;;;;;5036397;28;19921;-50
2022/05/09 08:44:00;;;;;;;;;;;19.80;37.30;;;;;;5035871;28;20422;-52
2022/05/09 08:46:30;;;;;;;;;;;19.80;37.20;;;;;;5036630;28;19928;-50
2022/05/09 08:49:02;;;;;;;;;;;19.80;37.20;;;;;;5033492;28;20019;-51
2022/05/09 08:51:34;;;;;;;;;;;19.80;37.30;;;;;;5035640;28;19928;-51
2022/05/09 08:54:02;;;;;;;;;;;19.80;37.30;;;;;;5035511;28;19920;-54
2022/05/09 08:56:29;;;;;;;;;;;19.80;37.30;;;;;;5036076;28;19924;-51
2022/05/09 08:58:56;;;;;;;;;;;19.80;37.30;;;;;;5032511;28;19928;-54
2022/05/09 09:01:26;;;;;;;;;;;19.80;37.30;;;;;;5033198;28;19924;-52
2022/05/09 09:03:54;;;;;;;;;;;19.80;37.30;;;;;;5035734;28;19921;-50
2022/05/09 09:06:23;;;;;;;;;;;19.80;37.30;;;;;;5036521;28;19971;-50
2022/05/09 09:08:58;;;;;;;;;;;19.80;37.40;;;;;;5014929;28;19921;-52
2022/05/09 09:11:28;;;;;;;;;;;19.90;37.40;;;;;;5016422;28;19925;-51
2022/05/09 09:13:57;;;;;;;;;;;19.80;37.30;;;;;;5033649;28;19921;-52
2022/05/09 09:16:29;;;;;;;;;;;19.90;37.30;;;;;;5015473;28;20437;-52
2022/05/09 09:19:05;;;;;;;;;;;19.80;37.30;;;;;;5033210;28;20281;-55
2022/05/09 09:21:34;;;;;;;;;;;19.90;37.40;;;;;;5015659;28;20314;-53
2022/05/09 09:24:05;;;;;;;;;;;19.80;37.30;;;;;;5015279;28;19921;-54
2022/05/09 09:26:34;;;;;;;;;;;19.90;37.40;;;;;;5015276;28;20012;-53
2022/05/09 09:29:03;;;;;;;;;;;19.90;37.40;;;;;;5026345;28;20003;-54
2022/05/09 09:31:32;;;;;;;;;;;19.90;37.40;;;;;;5035457;28;20234;-53
2022/05/09 09:34:01;;;;;;;;;;;19.90;37.40;;;;;;5052035;28;21633;-55
2022/05/09 09:36:31;;;;;;;;;;;19.90;37.40;;;;;;5034972;28;19924;-52
2022/05/09 09:38:59;;;;;;;;;;;19.90;37.40;;;;;;5051045;28;19924;-52
2022/05/09 09:41:27;;;;;;;;;;;19.90;37.40;;;;;;5035256;28;19925;-54
2022/05/09 09:43:56;;;;;;;;;;;19.90;37.50;;;;;;5035397;28;19924;-52
2022/05/09 09:46:23;;;;;;;;;;;19.90;37.50;;;;;;5035498;28;19963;-53
2022/05/09 09:49:00;;;;;;;;;;;19.90;37.40;;;;;;5035585;28;19921;-52
2022/05/09 09:51:27;;;;;;;;;;;19.90;37.40;;;;;;5052653;28;19943;-52
2022/05/09 09:53:58;;;;;;;;;;;19.90;37.30;;;;;;5051075;28;19931;-55
2022/05/09 09:56:27;;;;;;;;;;;19.90;37.30;;;;;;5035163;28;20016;-55
2022/05/09 09:58:56;;;;;;;;;;;19.90;37.30;;;;;;5022982;28;19925;-52
2022/05/09 10:01:23;;;;;;;;;;;19.90;37.40;;;;;;5014936;28;19921;-56
2022/05/09 10:04:04;;;;;;;;;;;19.90;37.40;;;;;;5013270;28;20048;-51
2022/05/09 10:06:33;;;;;;;;;;;19.90;37.20;;;;;;5033398;28;19932;-46
2022/05/09 10:09:01;;;;;;;;;;;19.90;37.20;;;;;;5020909;28;19921;-46
2022/05/09 10:11:29;;;;;;;;;;;19.90;37.30;;;;;;5021247;28;19929;-45
2022/05/09 10:13:56;;;;;;;;;;;19.90;37.40;;;;;;5020269;28;19928;-44
2022/05/09 10:16:24;;;;;;;;;;;19.90;37.50;;;;;;5021192;28;19952;-47
2022/05/09 10:18:51;;;;;;;;;;;20.00;37.80;;;;;;5038093;28;19992;-46
2022/05/09 10:24:47;;;;;;;;;;;20.00;38.00;;;;;;5020495;28;19931;-46
2022/05/09 10:26:53;;;;;;;;;;;20.00;38.60;;;;;;5021290;28;19921;-46
2022/05/09 10:29:20;;;;;;;;;;;20.10;38.10;;;;;;5020105;28;19959;-48
2022/05/09 10:31:48;;;;;;;;;;;20.10;38.10;;;;;;5019316;28;20287;-45
2022/05/09 10:34:15;;;;;;;;;;;20.10;38.10;;;;;;5018461;28;19928;-45
2022/05/09 10:36:42;;;;;;;;;;;20.10;38.10;;;;;;5034965;28;19921;-45
2022/05/09 10:39:12;;;;;;;;;;;20.10;38.00;;;;;;5038355;28;20023;-44
2022/05/09 10:41:40;;;;;;;;;;;20.20;38.10;;;;;;5042438;28;19982;-44
2022/05/09 10:44:09;;;;;;;;;;;20.20;38.10;;;;;;5061750;28;19927;-44
2022/05/09 10:46:41;;;;;;;;;;;20.20;38.20;;;;;;5043717;28;19921;-45
2022/05/09 10:49:09;;;;;;;;;;;20.20;38.80;;;;;;5042268;28;20357;-47
2022/05/09 10:51:39;;;;;;;;;;;20.20;38.20;;;;;;5044856;28;19927;-48
2022/05/09 10:54:07;;;;;;;;;;;20.30;38.30;;;;;;5040129;28;19921;-47
2022/05/09 10:56:36;;;;;;;;;;;20.30;38.30;;;;;;5038662;28;19927;-44
2022/05/09 10:59:04;;;;;;;;;;;20.30;38.30;;;;;;5036423;28;19927;-44
2022/05/09 11:01:31;;;;;;;;;;;20.30;38.40;;;;;;5039319;28;19928;-45
2022/05/09 11:03:58;;;;;;;;;;;20.30;38.40;;;;;;5038719;28;19929;-44
2022/05/09 11:06:26;;;;;;;;;;;20.30;38.30;;;;;;5038325;28;19924;-44
2022/05/09 11:08:58;;;;;;;;;;;20.30;38.30;;;;;;5056108;28;19921;-45
2022/05/09 11:11:25;;;;;;;;;;;20.40;38.40;;;;;;5038693;28;19975;-46
2022/05/09 11:13:56;;;;;;;;;;;20.40;38.40;;;;;;5039045;28;19964;-44
2022/05/09 11:16:24;;;;;;;;;;;20.30;38.30;;;;;;5037886;28;20042;-46
2022/05/09 11:19:04;;;;;;;;;;;20.40;38.40;;;;;;5038901;28;20301;-44
2022/05/09 11:21:33;;;;;;;;;;;20.40;38.40;;;;;;5056360;28;19944;-46
2022/05/09 11:24:03;;;;;;;;;;;20.40;38.40;;;;;;5038189;28;19960;-44
2022/05/09 11:26:32;;;;;;;;;;;20.40;38.30;;;;;;5056451;28;19920;-44
2022/05/09 11:29:18;;;;;;;;;;;20.40;38.30;;;;;;5040154;28;20273;-46
2022/05/09 11:31:51;;;;;;;;;;;20.40;38.80;;;;;;5042346;28;20006;-46
2022/05/09 11:34:22;;;;;;;;;;;20.40;38.20;;;;;;5057991;28;20379;-44
2022/05/09 11:37:02;;;;;;;;;;;20.40;38.20;;;;;;5043612;28;19921;-46
2022/05/09 11:39:30;;;;;;;;;;;20.40;38.10;;;;;;5036492;28;19921;-46
2022/05/09 11:41:58;;;;;;;;;;;20.40;38.10;;;;;;5040431;28;19924;-46
2022/05/09 11:44:30;;;;;;;;;;;20.40;38.10;;;;;;5058817;28;19924;-47
2022/05/09 11:47:06;;;;;;;;;;;20.40;38.10;;;;;;5037025;28;19952;-45
2022/05/09 11:49:37;;;;;;;;;;;20.40;38.10;;;;;;5022202;28;19921;-47
2022/05/09 11:52:07;;;;;;;;;;;20.40;38.10;;;;;;5018273;28;20200;-46
2022/05/09 11:54:35;;;;;;;;;;;20.40;38.10;;;;;;5039610;28;19967;-45
2022/05/09 11:57:02;;;;;;;;;;;20.50;38.10;;;;;;5024658;28;19952;-49
2022/05/09 11:59:31;;;;;;;;;;;20.40;38.00;;;;;;5042632;28;19920;-45
2022/05/09 12:02:03;;;;;;;;;;;20.40;37.90;;;;;;5040699;28;19967;-48
2022/05/09 12:04:35;;;;;;;;;;;20.40;37.80;;;;;;5060180;28;19925;-45
2022/05/09 12:07:02;;;;;;;;;;;20.50;37.90;;;;;;5040084;28;19947;-45
2022/05/09 12:09:47;;;;;;;;;;;20.40;37.80;;;;;;5037398;28;19982;-45
2022/05/09 12:12:27;;;;;;;;;;;20.50;37.70;;;;;;5039520;28;19949;-47
2022/05/09 12:14:55;;;;;;;;;;;20.50;37.70;;;;;;5038073;28;19921;-48
2022/05/09 12:17:35;;;;;;;;;;;20.50;37.70;;;;;;5036377;28;19975;-45
2022/05/09 12:20:03;;;;;;;;;;;20.50;37.60;;;;;;5038882;28;20314;-51
2022/05/09 12:22:35;;;;;;;;;;;20.50;37.60;;;;;;5037045;28;19941;-48
2022/05/09 12:25:02;;;;;;;;;;;20.50;37.60;;;;;;5042654;28;20366;-50
2022/05/09 12:27:43;;;;;;;;;;;20.50;37.60;;;;;;5041824;28;19964;-45
2022/05/09 12:30:15;;;;;;;;;;;20.50;37.60;;;;;;5042302;28;19920;-44
2022/05/09 12:32:42;;;;;;;;;;;20.50;37.50;;;;;;5040496;28;19920;-45
2022/05/09 12:35:08;;;;;;;;;;;20.50;37.60;;;;;;5041932;28;19921;-45
2022/05/09 12:37:43;;;;;;;;;;;20.50;37.50;;;;;;5042477;28;20371;-47
2022/05/09 12:40:18;;;;;;;;;;;20.50;37.50;;;;;;5058826;28;19951;-45
2022/05/09 12:42:45;;;;;;;;;;;20.50;37.40;;;;;;5040501;28;19920;-44
2022/05/09 12:45:12;;;;;;;;;;;20.50;37.30;;;;;;5043083;28;19986;-44
2022/05/09 12:47:40;;;;;;;;;;;20.50;37.20;;;;;;5058771;28;19984;-46
2022/05/09 12:50:08;;;;;;;;;;;20.50;37.30;;;;;;5039164;28;19924;-44
2022/05/09 12:52:35;;;;;;;;;;;20.50;37.30;;;;;;5039972;28;19927;-46
2022/05/09 12:57:46;;;;;;;;;;;20.50;37.20;;;;;;5041794;28;19928;-45
2022/05/09 13:00:14;;;;;;;;;;;20.50;37.20;;;;;;5040770;28;19921;-45
2022/05/09 13:02:42;;;;;;;;;;;20.50;37.20;;;;;;5038279;28;19948;-46
2022/05/09 13:05:10;;;;;;;;;;;20.50;37.20;;;;;;5040674;28;20242;-47
2022/05/09 13:07:51;;;;;;;;;;;20.50;37.00;;;;;;5057134;28;19932;-45
2022/05/09 13:10:18;;;;;;;;;;;20.50;36.80;;;;;;5041868;28;20427;-47
2022/05/09 13:12:44;;;;;;;;;;;20.50;36.70;;;;;;5040238;28;19932;-45
2022/05/09 13:15:11;;;;;;;;;;;20.50;36.70;;;;;;5059642;28;19928;-45
2022/05/09 13:17:39;;;;;;;;;;;20.50;36.70;;;;;;5042018;28;19932;-44
2022/05/09 13:20:10;;;;;;;;;;;20.50;36.70;;;;;;5060788;28;20319;-50
2022/05/09 13:22:38;;;;;;;;;;;20.50;36.70;;;;;;5040029;28;19928;-46
2022/05/09 13:25:06;;;;;;;;;;;20.50;36.70;;;;;;5040446;28;19921;-50
2022/05/09 13:27:33;;;;;;;;;;;20.50;36.60;;;;;;5041567;28;19921;-44
2022/05/09 13:30:05;;;;;;;;;;;20.50;36.60;;;;;;5040699;28;19921;-44
2022/05/09 13:32:34;;;;;;;;;;;20.50;36.60;;;;;;5032328;28;20000;-45
2022/05/09 13:35:00;;;;;;;;;;;20.50;36.70;;;;;;5022272;28;19925;-45
2022/05/09 13:37:29;;;;;;;;;;;20.50;36.60;;;;;;5021484;28;19960;-44
2022/05/09 13:39:57;;;;;;;;;;;20.50;36.40;;;;;;5040639;28;19928;-44
2022/05/09 13:42:24;;;;;;;;;;;20.50;36.40;;;;;;5022700;28;20369;-44
2022/05/09 13:44:51;;;;;;;;;;;20.50;36.30;;;;;;5023696;28;20030;-44
2022/05/09 13:47:18;;;;;;;;;;;20.50;36.40;;;;;;5022784;28;19928;-45
2022/05/09 13:49:45;;;;;;;;;;;20.50;36.40;;;;;;5038722;28;19921;-45
2022/05/09 13:52:12;;;;;;;;;;;20.50;36.40;;;;;;5022735;28;20308;-47
2022/05/09 13:54:45;;;;;;;;;;;20.50;36.30;;;;;;5039808;28;19971;-45
2022/05/09 13:57:16;;;;;;;;;;;20.50;36.20;;;;;;5020904;28;19932;-45
2022/05/09 13:59:43;;;;;;;;;;;20.50;36.10;;;;;;5018866;28;19921;-47
2022/05/09 14:02:10;;;;;;;;;;;20.50;36.10;;;;;;5036309;28;20043;-44
2022/05/09 14:04:37;;;;;;;;;;;20.50;36.20;;;;;;5036421;28;20000;-44
2022/05/09 14:07:37;;;;;;;;;;;20.50;36.20;;;;;;5034993;28;19943;-45
2022/05/09 14:09:52;;;;;;;;;;;20.50;36.20;;;;;;5055746;28;19921;-45
2022/05/09 14:12:19;;;;;;;;;;;20.50;36.30;;;;;;5039354;28;19921;-44
2022/05/09 14:14:47;;;;;;;;;;;20.50;36.30;;;;;;5042315;28;20318;-45
2022/05/09 14:17:18;;;;;;;;;;;20.50;36.30;;;;;;5040273;28;19940;-46
2022/05/09 14:19:44;;;;;;;;;;;20.60;36.40;;;;;;5044440;28;19925;-46
2022/05/09 14:22:13;;;;;;;;;;;20.60;36.40;;;;;;5042441;28;19928;-46
2022/05/09 14:29:35;;;;;;;;;;;20.60;36.40;;;;;;5041917;28;19920;-44
2022/05/09 14:30:10;;;;;;;;;;;20.60;36.40;;;;;;5001678;28;19921;-49
2022/05/09 14:32:46;;;;;;;;;;;20.60;36.30;;;;;;5043686;28;19925;-47
2022/05/09 14:35:13;;;;;;;;;;;20.60;36.20;;;;;;5042445;28;19959;-46
2022/05/09 14:37:49;;;;;;;;;;;20.60;36.30;;;;;;5039690;28;19956;-44